^^
Grace C. Lehan Memorial Weather Station Historical Data
Daily Summary for March 4, 2021 Units:  Both    English   Metric
Daily Weekly Monthly Yearly
  High: Low: Average:
Temperature: 42.7 °F /  5.9 °C 28 °F /  -2.2 °C 35 °F /  1.7 °C
Dew Point: 34.8 °F /  1.6 °C 21.3 °F /  -5.9 °C 27.7 °F /  -2.4 °C
Humidity: 86.7% 63.6% 75%
Wind Speed: 2.7mph /  4.3km/h - 0.1mph /  0.2km/h
Wind Gust: 7mph /  11.3km/h - -
Wind- - NW
Pressure: 30.15 in /  1020.9 hPa 30.02 in /  1016.5 hPa -
Precipitation: 0.00 in /  0 mm    
 
 
Tabular Data for March 4, 2021
Time Temperature Dew Point Pressure Wind Wind Speed Wind Gust Humidity Rainfall Rate (Hourly) solar
00:04 30.6 °F /  -0.8 °C 21.3 °F /  -5.9 °C 30.05in /  1017.5hPa Calm     68% 0.00in /  0mm 0 W/m2
00:09 30.6 °F /  -0.8 °C 21.3 °F /  -5.9 °C 30.05in /  1017.5hPa Calm     68% 0.00in /  0mm 0 W/m2
00:14 30.6 °F /  -0.8 °C 21.5 °F /  -5.8 °C 30.04in /  1017.2hPa Calm     68.5% 0.00in /  0mm 0 W/m2
00:19 30.6 °F /  -0.8 °C 21.6 °F /  -5.8 °C 30.04in /  1017.2hPa Calm     68.9% 0.00in /  0mm 0 W/m2
00:24 30.6 °F /  -0.8 °C 21.5 °F /  -5.8 °C 30.04in /  1017.2hPa Calm     68.4% 0.00in /  0mm 0 W/m2
00:29 30.6 °F /  -0.8 °C 21.7 °F /  -5.7 °C 30.04in /  1017.2hPa Calm     69.1% 0.00in /  0mm 0 W/m2
00:34 30.6 °F /  -0.8 °C 21.7 °F /  -5.7 °C 30.04in /  1017.2hPa Calm     69.2% 0.00in /  0mm 0 W/m2
00:39 30.5 °F /  -0.8 °C 21.7 °F /  -5.7 °C 30.04in /  1017.2hPa Calm     69.2% 0.00in /  0mm 0 W/m2
00:44 30.6 °F /  -0.8 °C 21.6 °F /  -5.8 °C 30.04in /  1017.2hPa Calm     69% 0.00in /  0mm 0 W/m2
00:49 30.6 °F /  -0.8 °C 21.7 °F /  -5.7 °C 30.04in /  1017.2hPa Calm     69.1% 0.00in /  0mm 0 W/m2
00:54 30.6 °F /  -0.8 °C 21.7 °F /  -5.7 °C 30.04in /  1017.2hPa Calm     69% 0.00in /  0mm 0 W/m2
00:59 30.7 °F /  -0.7 °C 21.7 °F /  -5.7 °C 30.04in /  1017.2hPa Calm     69% 0.00in /  0mm 0 W/m2
01:04 30.7 °F /  -0.7 °C 21.7 °F /  -5.7 °C 30.03in /  1016.8hPa Calm     69% 0.00in /  0mm 0 W/m2
01:09 30.4 °F /  -0.9 °C 21.5 °F /  -5.8 °C 30.04in /  1017.2hPa Calm     69.2% 0.00in /  0mm 0 W/m2
01:14 30.2 °F /  -1 °C 21.6 °F /  -5.8 °C 30.04in /  1017.2hPa Calm     70% 0.00in /  0mm 0 W/m2
01:19 29.9 °F /  -1.2 °C 21.6 °F /  -5.8 °C 30.04in /  1017.2hPa Calm     70.9% 0.00in /  0mm 0 W/m2
01:24 29.6 °F /  -1.3 °C 21.7 °F /  -5.7 °C 30.04in /  1017.2hPa Calm     71.8% 0.00in /  0mm 0 W/m2
01:29 29.4 °F /  -1.4 °C 21.5 °F /  -5.8 °C 30.04in /  1017.2hPa Calm     72% 0.00in /  0mm 0 W/m2
01:34 29.3 °F /  -1.5 °C 21.5 °F /  -5.8 °C 30.04in /  1017.2hPa Calm     72.3% 0.00in /  0mm 0 W/m2
01:39 29.1 °F /  -1.6 °C 21.6 °F /  -5.8 °C 30.05in /  1017.5hPa Calm     73% 0.00in /  0mm 0 W/m2
01:44 29.1 °F /  -1.6 °C 21.5 °F /  -5.8 °C 30.05in /  1017.5hPa Calm     73% 0.00in /  0mm 0 W/m2
01:49 29 °F /  -1.7 °C 21.6 °F /  -5.8 °C 30.05in /  1017.5hPa Calm     73.5% 0.00in /  0mm 0 W/m2
01:54 28.9 °F /  -1.7 °C 21.7 °F /  -5.7 °C 30.05in /  1017.5hPa Calm     74% 0.00in /  0mm 0 W/m2
01:59 28.9 °F /  -1.7 °C 21.7 °F /  -5.7 °C 30.05in /  1017.5hPa Calm     74% 0.00in /  0mm 0 W/m2
02:04 28.9 °F /  -1.7 °C 21.7 °F /  -5.7 °C 30.05in /  1017.5hPa Calm     74% 0.00in /  0mm 0 W/m2
02:09 28.9 °F /  -1.7 °C 21.7 °F /  -5.7 °C 30.05in /  1017.5hPa Calm     74% 0.00in /  0mm 0 W/m2
02:14 28.9 °F /  -1.7 °C 21.7 °F /  -5.7 °C 30.05in /  1017.5hPa Calm     74% 0.00in /  0mm 0 W/m2
02:19 28.9 °F /  -1.7 °C 21.9 °F /  -5.6 °C 30.05in /  1017.5hPa Calm     74.6% 0.00in /  0mm 0 W/m2
02:24 28.9 °F /  -1.7 °C 22 °F /  -5.6 °C 30.06in /  1017.8hPa Calm     75% 0.00in /  0mm 0 W/m2
02:29 29 °F /  -1.7 °C 22.2 °F /  -5.4 °C 30.06in /  1017.8hPa Calm     75.4% 0.00in /  0mm 0 W/m2
02:34 29 °F /  -1.7 °C 22.4 °F /  -5.3 °C 30.06in /  1017.8hPa Calm     76% 0.00in /  0mm 0 W/m2
02:39 29 °F /  -1.7 °C 22.4 °F /  -5.3 °C 30.06in /  1017.8hPa Calm     76% 0.00in /  0mm 0 W/m2
02:44 29 °F /  -1.7 °C 22.4 °F /  -5.3 °C 30.06in /  1017.8hPa Calm     76.1% 0.00in /  0mm 0 W/m2
02:49 29 °F /  -1.7 °C 22.7 °F /  -5.2 °C 30.06in /  1017.8hPa Calm     77% 0.00in /  0mm 0 W/m2
02:54 29.1 °F /  -1.6 °C 22.8 °F /  -5.1 °C 30.07in /  1018.2hPa Calm     77% 0.00in /  0mm 0 W/m2
02:59 29.1 °F /  -1.6 °C 23.1 °F /  -4.9 °C 30.07in /  1018.2hPa Calm     77.9% 0.00in /  0mm 0 W/m2
03:04 29.2 °F /  -1.6 °C 23.2 °F /  -4.9 °C 30.07in /  1018.2hPa Calm     78% 0.00in /  0mm 0 W/m2
03:09 29.2 °F /  -1.6 °C 23.5 °F /  -4.7 °C 30.06in /  1017.8hPa Calm     78.8% 0.00in /  0mm 0 W/m2
03:14 29.3 °F /  -1.5 °C 23.6 °F /  -4.7 °C 30.06in /  1017.8hPa Calm     79% 0.00in /  0mm 0 W/m2
03:19 29.4 °F /  -1.4 °C 23.6 °F /  -4.7 °C 30.06in /  1017.8hPa Calm     78.8% 0.00in /  0mm 0 W/m2
03:24 29.4 °F /  -1.4 °C 23.3 °F /  -4.8 °C 30.06in /  1017.8hPa Calm     77.7% 0.00in /  0mm 0 W/m2
03:29 29.5 °F /  -1.4 °C 23.2 °F /  -4.9 °C 30.06in /  1017.8hPa Calm     77% 0.00in /  0mm 0 W/m2
03:34 29.6 °F /  -1.3 °C 23.1 °F /  -4.9 °C 30.07in /  1018.2hPa Calm     76.5% 0.00in /  0mm 0 W/m2
03:39 29.7 °F /  -1.3 °C 23.1 °F /  -4.9 °C 30.06in /  1017.8hPa Calm     76% 0.00in /  0mm 0 W/m2
03:44 29.8 °F /  -1.2 °C 22.9 °F /  -5.1 °C 30.06in /  1017.8hPa Calm     75.2% 0.00in /  0mm 0 W/m2
03:49 29.9 °F /  -1.2 °C 23 °F /  -5 °C 30.07in /  1018.2hPa Calm     75% 0.00in /  0mm 0 W/m2
03:54 29.9 °F /  -1.2 °C 23 °F /  -5 °C 30.07in /  1018.2hPa Calm     75% 0.00in /  0mm 0 W/m2
03:59 29.9 °F /  -1.2 °C 23 °F /  -5 °C 30.06in /  1017.8hPa Calm     75% 0.00in /  0mm 0 W/m2
04:04 29.9 °F /  -1.2 °C 22.8 °F /  -5.1 °C 30.07in /  1018.2hPa Calm     74.5% 0.00in /  0mm 0 W/m2
04:09 29.9 °F /  -1.2 °C 22.7 °F /  -5.2 °C 30.07in /  1018.2hPa Calm     74.2% 0.00in /  0mm 0 W/m2
04:14 29.8 °F /  -1.2 °C 22.6 °F /  -5.2 °C 30.06in /  1017.8hPa Calm     74.2% 0.00in /  0mm 0 W/m2
04:19 29.7 °F /  -1.3 °C 22.8 °F /  -5.1 °C 30.06in /  1017.8hPa Calm     75% 0.00in /  0mm 0 W/m2
04:24 29.7 °F /  -1.3 °C 22.8 °F /  -5.1 °C 30.06in /  1017.8hPa Calm     75% 0.00in /  0mm 0 W/m2
04:29 29.6 °F /  -1.3 °C 22.7 °F /  -5.2 °C 30.07in /  1018.2hPa Calm     75% 0.00in /  0mm 0 W/m2
04:34 29.6 °F /  -1.3 °C 22.9 °F /  -5.1 °C 30.06in /  1017.8hPa Calm     75.7% 0.00in /  0mm 0 W/m2
04:39 29.4 °F /  -1.4 °C 22.8 °F /  -5.1 °C 30.07in /  1018.2hPa Calm     76% 0.00in /  0mm 0 W/m2
04:44 29.3 °F /  -1.5 °C 22.7 °F /  -5.2 °C 30.06in /  1017.8hPa Calm     76% 0.00in /  0mm 0 W/m2
04:49 29.2 °F /  -1.6 °C 22.9 °F /  -5.1 °C 30.06in /  1017.8hPa Calm     77% 0.00in /  0mm 0 W/m2
04:54 29.1 °F /  -1.6 °C 22.8 °F /  -5.1 °C 30.06in /  1017.8hPa Calm     77% 0.00in /  0mm 0 W/m2
04:59 29 °F /  -1.7 °C 22.8 °F /  -5.1 °C 30.06in /  1017.8hPa Calm     77.2% 0.00in /  0mm 0 W/m2
05:04 28.9 °F /  -1.7 °C 22.6 °F /  -5.2 °C 30.07in /  1018.2hPa Calm     77% 0.00in /  0mm 0 W/m2
05:09 28.9 °F /  -1.7 °C 22.8 °F /  -5.1 °C 30.07in /  1018.2hPa Calm     77.5% 0.00in /  0mm 0 W/m2
05:14 28.9 °F /  -1.7 °C 22.6 °F /  -5.2 °C 30.06in /  1017.8hPa Calm     77% 0.00in /  0mm 0 W/m2
05:19 28.8 °F /  -1.8 °C 22.7 °F /  -5.2 °C 30.06in /  1017.8hPa Calm     77.7% 0.00in /  0mm 0 W/m2
05:24 28.7 °F /  -1.8 °C 22.8 °F /  -5.1 °C 30.06in /  1017.8hPa Calm     78% 0.00in /  0mm 0 W/m2
05:29 28.6 °F /  -1.9 °C 22.7 °F /  -5.2 °C 30.06in /  1017.8hPa Calm     78% 0.00in /  0mm 0 W/m2
05:34 28.5 °F /  -1.9 °C 22.7 °F /  -5.2 °C 30.07in /  1018.2hPa Calm     78.6% 0.00in /  0mm 0 W/m2
05:39 28.4 °F /  -2 °C 22.7 °F /  -5.2 °C 30.07in /  1018.2hPa Calm     79% 0.00in /  0mm 0 W/m2
05:44 28.3 °F /  -2.1 °C 22.6 °F /  -5.2 °C 30.07in /  1018.2hPa Calm     79% 0.00in /  0mm 0 W/m2
05:49 28.1 °F /  -2.2 °C 22.5 °F /  -5.3 °C 30.07in /  1018.2hPa Calm     79.2% 0.00in /  0mm 0 W/m2
05:54 28.1 °F /  -2.2 °C 22.7 °F /  -5.2 °C 30.07in /  1018.2hPa Calm     80% 0.00in /  0mm 0 W/m2
05:59 28.1 °F /  -2.2 °C 22.7 °F /  -5.2 °C 30.07in /  1018.2hPa Calm     80% 0.00in /  0mm 0 W/m2
06:04 28.1 °F /  -2.2 °C 22.8 °F /  -5.1 °C 30.08in /  1018.5hPa Calm     80% 0.00in /  0mm 0 W/m2
06:09 28.1 °F /  -2.2 °C 22.7 °F /  -5.2 °C 30.07in /  1018.2hPa Calm     80% 0.00in /  0mm 0 W/m2
06:14 28.1 °F /  -2.2 °C 22.8 °F /  -5.1 °C 30.07in /  1018.2hPa Calm     80% 0.00in /  0mm 0 W/m2
06:19 28.2 °F /  -2.1 °C 22.8 °F /  -5.1 °C 30.08in /  1018.5hPa Calm     80% 0.00in /  0mm 0 W/m2
06:22 28.2 °F /  -2.1 °C 22.9 °F /  -5.1 °C 30.08in /  1018.5hPa Calm     80% 0.00in /  0mm 0 W/m2
06:29 28.2 °F /  -2.1 °C 22.8 °F /  -5.1 °C 30.08in /  1018.5hPa Calm     80% 0.00in /  0mm 0 W/m2
06:34 28.1 °F /  -2.2 °C 22.8 °F /  -5.1 °C 30.08in /  1018.5hPa Calm     80% 0.00in /  0mm 0 W/m2
06:39 28.1 °F /  -2.2 °C 22.7 °F /  -5.2 °C 30.08in /  1018.5hPa Calm     80% 0.00in /  0mm 0 W/m2
06:44 28.1 °F /  -2.2 °C 23 °F /  -5 °C 30.07in /  1018.2hPa Calm     80.7% 0.00in /  0mm 0 W/m2
06:49 28.1 °F /  -2.2 °C 23 °F /  -5 °C 30.07in /  1018.2hPa Calm     81% 0.00in /  0mm 0 W/m2
06:54 28 °F /  -2.2 °C 23 °F /  -5 °C 30.08in /  1018.5hPa Calm     81% 0.00in /  0mm 0 W/m2
06:59 28 °F /  -2.2 °C 22.9 °F /  -5.1 °C 30.08in /  1018.5hPa Calm     81% 0.00in /  0mm 0 W/m2
07:04 28 °F /  -2.2 °C 23 °F /  -5 °C 30.09in /  1018.8hPa Calm     81% 0.00in /  0mm 0 W/m2
07:09 28.1 °F /  -2.2 °C 23 °F /  -5 °C 30.09in /  1018.8hPa Calm     81% 0.00in /  0mm 12 W/m2
07:14 28.1 °F /  -2.2 °C 23 °F /  -5 °C 30.08in /  1018.5hPa Calm     81% 0.00in /  0mm 12 W/m2
07:19 28.1 °F /  -2.2 °C 23 °F /  -5 °C 30.09in /  1018.8hPa Calm     81% 0.00in /  0mm 12 W/m2
07:24 28.2 °F /  -2.1 °C 23 °F /  -5 °C 30.09in /  1018.8hPa Calm     80.8% 0.00in /  0mm 16 W/m2
07:29 28.3 °F /  -2.1 °C 23.3 °F /  -4.8 °C 30.09in /  1018.8hPa Calm     81% 0.00in /  0mm 16 W/m2
07:34 28.5 °F /  -1.9 °C 23.4 °F /  -4.8 °C 30.10in /  1019.2hPa Calm     81% 0.00in /  0mm 23 W/m2
07:39 28.6 °F /  -1.9 °C 23.5 °F /  -4.7 °C 30.10in /  1019.2hPa Calm     81% 0.00in /  0mm 26 W/m2
07:44 28.7 °F /  -1.8 °C 23.7 °F /  -4.6 °C 30.10in /  1019.2hPa NW 0.1mph /  0.2km/h 1mph /  1.6km/h 81% 0.00in /  0mm 30 W/m2
07:49 29 °F /  -1.7 °C 23.9 °F /  -4.5 °C 30.10in /  1019.2hPa Calm   1mph /  1.6km/h 81% 0.00in /  0mm 37 W/m2
07:54 29.2 °F /  -1.6 °C 23.9 °F /  -4.5 °C 30.10in /  1019.2hPa Calm   1mph /  1.6km/h 80.4% 0.00in /  0mm 37 W/m2
07:58 29.4 °F /  -1.4 °C 24 °F /  -4.4 °C 30.10in /  1019.2hPa Calm   1mph /  1.6km/h 80% 0.00in /  0mm 32 W/m2
08:09 29.9 °F /  -1.2 °C 24.5 °F /  -4.2 °C 30.11in /  1019.5hPa Calm     80% 0.00in /  0mm 33 W/m2
08:14 30.2 °F /  -1 °C 24.4 °F /  -4.2 °C 30.11in /  1019.5hPa Calm     79% 0.00in /  0mm 42 W/m2
08:19 30.4 °F /  -0.9 °C 24.7 °F /  -4.1 °C 30.10in /  1019.2hPa Calm     79% 0.00in /  0mm 47 W/m2
08:24 30.7 °F /  -0.7 °C 24.9 °F /  -3.9 °C 30.10in /  1019.2hPa Calm     79% 0.00in /  0mm 47 W/m2
08:29 30.9 °F /  -0.6 °C 24.9 °F /  -3.9 °C 30.10in /  1019.2hPa Calm     78.2% 0.00in /  0mm 51 W/m2
08:34 31.1 °F /  -0.5 °C 24.8 °F /  -4 °C 30.10in /  1019.2hPa Calm     77% 0.00in /  0mm 56 W/m2
08:39 31.4 °F /  -0.3 °C 25 °F /  -3.9 °C 30.11in /  1019.5hPa Calm     77% 0.00in /  0mm 56 W/m2
08:44 31.6 °F /  -0.2 °C 25.2 °F /  -3.8 °C 30.11in /  1019.5hPa Calm     77% 0.00in /  0mm 56 W/m2
08:49 31.8 °F /  -0.1 °C 25.4 °F /  -3.7 °C 30.11in /  1019.5hPa Calm     76.8% 0.00in /  0mm 58 W/m2
08:54 32.1 °F /  0.1 °C 25.4 °F /  -3.7 °C 30.11in /  1019.5hPa Calm     76.2% 0.00in /  0mm 63 W/m2
08:59 32.3 °F /  0.2 °C 25.3 °F /  -3.7 °C 30.11in /  1019.5hPa Calm     75% 0.00in /  0mm 67 W/m2
09:04 32.5 °F /  0.3 °C 25.5 °F /  -3.6 °C 30.11in /  1019.5hPa Calm     75% 0.00in /  0mm 70 W/m2
09:09 32.7 °F /  0.4 °C 25.7 °F /  -3.5 °C 30.11in /  1019.5hPa Calm     75% 0.00in /  0mm 77 W/m2
09:14 32.9 °F /  0.5 °C 25.6 °F /  -3.6 °C 30.11in /  1019.5hPa Calm     74.3% 0.00in /  0mm 91 W/m2
09:19 33.1 °F /  0.6 °C 25.6 °F /  -3.6 °C 30.11in /  1019.5hPa Calm     73.7% 0.00in /  0mm 102 W/m2
09:24 33.3 °F /  0.7 °C 25.5 °F /  -3.6 °C 30.11in /  1019.5hPa Calm     72.7% 0.00in /  0mm 105 W/m2
09:29 33.6 °F /  0.9 °C 25.9 °F /  -3.4 °C 30.11in /  1019.5hPa Calm     73% 0.00in /  0mm 104 W/m2
09:34 33.8 °F /  1 °C 26 °F /  -3.3 °C 30.11in /  1019.5hPa Calm   1mph /  1.6km/h 72.8% 0.00in /  0mm 93 W/m2
09:39 34 °F /  1.1 °C 26 °F /  -3.3 °C 30.11in /  1019.5hPa NW 0.2mph /  0.3km/h 1mph /  1.6km/h 72% 0.00in /  0mm 97 W/m2
09:44 34.2 °F /  1.2 °C 26.1 °F /  -3.3 °C 30.11in /  1019.5hPa NW 0.1mph /  0.2km/h 2mph /  3.2km/h 72% 0.00in /  0mm 105 W/m2
09:49 34.4 °F /  1.3 °C 26.3 °F /  -3.2 °C 30.11in /  1019.5hPa Calm   2mph /  3.2km/h 72.2% 0.00in /  0mm 107 W/m2
09:54 34.5 °F /  1.4 °C 26.4 °F /  -3.1 °C 30.11in /  1019.5hPa NW 0.2mph /  0.3km/h 3mph /  4.8km/h 72% 0.00in /  0mm 111 W/m2
09:59 34.6 °F /  1.4 °C 26.5 °F /  -3.1 °C 30.11in /  1019.5hPa Calm   3mph /  4.8km/h 72% 0.00in /  0mm 109 W/m2
10:04 34.6 °F /  1.4 °C 26.5 °F /  -3.1 °C 30.11in /  1019.5hPa Calm   3mph /  4.8km/h 72% 0.00in /  0mm 114 W/m2
10:09 34.7 °F /  1.5 °C 27.1 °F /  -2.7 °C 30.11in /  1019.5hPa NW 0.1mph /  0.2km/h 2mph /  3.2km/h 73.5% 0.00in /  0mm 113 W/m2
10:14 34.8 °F /  1.6 °C 26.7 °F /  -2.9 °C 30.11in /  1019.5hPa NW 0.3mph /  0.5km/h 3mph /  4.8km/h 72% 0.00in /  0mm 120 W/m2
10:19 35 °F /  1.7 °C 26.6 °F /  -3 °C 30.11in /  1019.5hPa NW 0.1mph /  0.2km/h 3mph /  4.8km/h 71.1% 0.00in /  0mm 116 W/m2
10:24 35.1 °F /  1.7 °C 26.8 °F /  -2.9 °C 30.11in /  1019.5hPa Calm   3mph /  4.8km/h 71.2% 0.00in /  0mm 121 W/m2
10:29 35.3 °F /  1.8 °C 27 °F /  -2.8 °C 30.10in /  1019.2hPa Calm   3mph /  4.8km/h 71.5% 0.00in /  0mm 125 W/m2
10:34 35.5 °F /  1.9 °C 27.1 °F /  -2.7 °C 30.11in /  1019.5hPa Calm   3mph /  4.8km/h 71% 0.00in /  0mm 123 W/m2
10:39 35.7 °F /  2.1 °C 27 °F /  -2.8 °C 30.11in /  1019.5hPa Calm     70.4% 0.00in /  0mm 120 W/m2
10:44 35.9 °F /  2.2 °C 27.1 °F /  -2.7 °C 30.10in /  1019.2hPa Calm     70% 0.00in /  0mm 144 W/m2
10:49 36.1 °F /  2.3 °C 27.2 °F /  -2.7 °C 30.10in /  1019.2hPa Calm     70% 0.00in /  0mm 146 W/m2
10:54 36.2 °F /  2.3 °C 27.3 °F /  -2.6 °C 30.10in /  1019.2hPa Calm     69.8% 0.00in /  0mm 141 W/m2
10:59 36.5 °F /  2.5 °C 27.3 °F /  -2.6 °C 30.10in /  1019.2hPa Calm     69.2% 0.00in /  0mm 139 W/m2
11:04 36.7 °F /  2.6 °C 27.6 °F /  -2.4 °C 30.10in /  1019.2hPa Calm     69.3% 0.00in /  0mm 135 W/m2
11:09 37 °F /  2.8 °C 28 °F /  -2.2 °C 30.09in /  1018.8hPa Calm     69.7% 0.00in /  0mm 134 W/m2
11:14 37.3 °F /  2.9 °C 28.2 °F /  -2.1 °C 30.09in /  1018.8hPa Calm     69.4% 0.00in /  0mm 134 W/m2
11:19 37.6 °F /  3.1 °C 28.7 °F /  -1.8 °C 30.09in /  1018.8hPa Calm     70% 0.00in /  0mm 142 W/m2
11:24 38 °F /  3.3 °C 28.9 °F /  -1.7 °C 30.09in /  1018.8hPa Calm     69.6% 0.00in /  0mm 142 W/m2
11:29 38.3 °F /  3.5 °C 29 °F /  -1.7 °C 30.09in /  1018.8hPa Calm     68.8% 0.00in /  0mm 135 W/m2
11:34 38.6 °F /  3.7 °C 29 °F /  -1.7 °C 30.09in /  1018.8hPa Calm   2mph /  3.2km/h 68% 0.00in /  0mm 146 W/m2
11:39 38.9 °F /  3.8 °C 29.2 °F /  -1.6 °C 30.08in /  1018.5hPa Calm   2mph /  3.2km/h 68% 0.00in /  0mm 146 W/m2
11:44 39.1 °F /  3.9 °C 29.5 °F /  -1.4 °C 30.08in /  1018.5hPa NW 0.3mph /  0.5km/h 3mph /  4.8km/h 68% 0.00in /  0mm 144 W/m2
11:49 39.4 °F /  4.1 °C 29.7 °F /  -1.3 °C 30.08in /  1018.5hPa Calm   3mph /  4.8km/h 68% 0.00in /  0mm 144 W/m2
11:54 39.5 °F /  4.2 °C 29.9 °F /  -1.2 °C 30.08in /  1018.5hPa Calm   3mph /  4.8km/h 68% 0.00in /  0mm 135 W/m2
11:59 39.7 °F /  4.3 °C 29.9 °F /  -1.2 °C 30.08in /  1018.5hPa Calm   3mph /  4.8km/h 67.5% 0.00in /  0mm 134 W/m2
12:09 40 °F /  4.4 °C 29.9 °F /  -1.2 °C 30.08in /  1018.5hPa Calm     66.9% 0.00in /  0mm 139 W/m2
12:14 40.1 °F /  4.5 °C 30 °F /  -1.1 °C 30.08in /  1018.5hPa NW 0.1mph /  0.2km/h 2mph /  3.2km/h 67% 0.00in /  0mm 141 W/m2
12:19 40.2 °F /  4.6 °C 29.8 °F /  -1.2 °C 30.07in /  1018.2hPa Calm   2mph /  3.2km/h 66.2% 0.00in /  0mm 139 W/m2
12:24 40.3 °F /  4.6 °C 29.6 °F /  -1.3 °C 30.07in /  1018.2hPa NW 0.5mph /  0.8km/h 3mph /  4.8km/h 65.5% 0.00in /  0mm 139 W/m2
12:29 40.4 °F /  4.7 °C 29.9 °F /  -1.2 °C 30.07in /  1018.2hPa NW 0.1mph /  0.2km/h 3mph /  4.8km/h 65.8% 0.00in /  0mm 139 W/m2
12:34 40.5 °F /  4.7 °C 30 °F /  -1.1 °C 30.07in /  1018.2hPa NW 0.5mph /  0.8km/h 3mph /  4.8km/h 65.9% 0.00in /  0mm 137 W/m2
12:39 40.6 °F /  4.8 °C 29.9 °F /  -1.2 °C 30.07in /  1018.2hPa Calm   3mph /  4.8km/h 65.4% 0.00in /  0mm 135 W/m2
12:44 40.7 °F /  4.8 °C 30 °F /  -1.1 °C 30.06in /  1017.8hPa Calm   3mph /  4.8km/h 65.5% 0.00in /  0mm 134 W/m2
12:49 40.7 °F /  4.8 °C 30.1 °F /  -1.1 °C 30.05in /  1017.5hPa Calm   3mph /  4.8km/h 65.5% 0.00in /  0mm 134 W/m2
12:54 40.8 °F /  4.9 °C 30.1 °F /  -1.1 °C 30.05in /  1017.5hPa Calm   3mph /  4.8km/h 65.5% 0.00in /  0mm 132 W/m2
12:59 40.7 °F /  4.8 °C 29.6 °F /  -1.3 °C 30.06in /  1017.8hPa Calm   3mph /  4.8km/h 64.1% 0.00in /  0mm 132 W/m2
13:04 40.7 °F /  4.8 °C 29.9 °F /  -1.2 °C 30.06in /  1017.8hPa Calm   3mph /  4.8km/h 65% 0.00in /  0mm 121 W/m2
13:09 40.8 °F /  4.9 °C 29.9 °F /  -1.2 °C 30.06in /  1017.8hPa Calm     64.8% 0.00in /  0mm 120 W/m2
13:14 40.8 °F /  4.9 °C 29.9 °F /  -1.2 °C 30.06in /  1017.8hPa Calm     64.7% 0.00in /  0mm 116 W/m2
13:19 40.8 °F /  4.9 °C 29.7 °F /  -1.3 °C 30.06in /  1017.8hPa Calm     64.3% 0.00in /  0mm 118 W/m2
13:24 40.8 °F /  4.9 °C 30 °F /  -1.1 °C 30.06in /  1017.8hPa Calm     64.9% 0.00in /  0mm 123 W/m2
13:29 40.9 °F /  4.9 °C 29.8 °F /  -1.2 °C 30.06in /  1017.8hPa Calm     64.2% 0.00in /  0mm 113 W/m2
13:34 40.9 °F /  4.9 °C 29.7 °F /  -1.3 °C 30.05in /  1017.5hPa Calm     64% 0.00in /  0mm 111 W/m2
13:39 41 °F /  5 °C 29.7 °F /  -1.3 °C 30.05in /  1017.5hPa Calm     64% 0.00in /  0mm 123 W/m2
13:44 41 °F /  5 °C 29.9 °F /  -1.2 °C 30.04in /  1017.2hPa NW 0.2mph /  0.3km/h 2mph /  3.2km/h 64.3% 0.00in /  0mm 137 W/m2
13:49 41 °F /  5 °C 29.9 °F /  -1.2 °C 30.04in /  1017.2hPa NW 0.1mph /  0.2km/h 2mph /  3.2km/h 64.3% 0.00in /  0mm 155 W/m2
13:54 41.1 °F /  5.1 °C 30.1 °F /  -1.1 °C 30.04in /  1017.2hPa Calm   2mph /  3.2km/h 64.5% 0.00in /  0mm 156 W/m2
13:59 41.3 °F /  5.2 °C 30.4 °F /  -0.9 °C 30.04in /  1017.2hPa Calm   2mph /  3.2km/h 64.8% 0.00in /  0mm 155 W/m2
14:04 41.5 °F /  5.3 °C 30.4 °F /  -0.9 °C 30.03in /  1016.8hPa Calm   2mph /  3.2km/h 64.6% 0.00in /  0mm 155 W/m2
14:09 41.6 °F /  5.3 °C 30.4 °F /  -0.9 °C 30.03in /  1016.8hPa NW 0.1mph /  0.2km/h 2mph /  3.2km/h 64.2% 0.00in /  0mm 153 W/m2
14:14 41.7 °F /  5.4 °C 30.4 °F /  -0.9 °C 30.03in /  1016.8hPa Calm   2mph /  3.2km/h 64% 0.00in /  0mm 146 W/m2
14:19 41.8 °F /  5.4 °C 30.5 °F /  -0.8 °C 30.03in /  1016.8hPa Calm   2mph /  3.2km/h 64% 0.00in /  0mm 135 W/m2
14:24 41.9 °F /  5.5 °C 30.6 °F /  -0.8 °C 30.03in /  1016.8hPa Calm   2mph /  3.2km/h 64% 0.00in /  0mm 102 W/m2
14:29 42 °F /  5.6 °C 30.5 °F /  -0.8 °C 30.02in /  1016.5hPa Calm   2mph /  3.2km/h 63.6% 0.00in /  0mm 91 W/m2
14:34 42 °F /  5.6 °C 30.6 °F /  -0.8 °C 30.03in /  1016.8hPa Calm   2mph /  3.2km/h 63.6% 0.00in /  0mm 100 W/m2
14:39 42 °F /  5.6 °C 30.7 °F /  -0.7 °C 30.03in /  1016.8hPa Calm     64% 0.00in /  0mm 107 W/m2
14:44 42 °F /  5.6 °C 30.7 °F /  -0.7 °C 30.03in /  1016.8hPa Calm     63.9% 0.00in /  0mm 90 W/m2
14:49 42 °F /  5.6 °C 30.7 °F /  -0.7 °C 30.03in /  1016.8hPa Calm     63.8% 0.00in /  0mm 79 W/m2
14:54 42.1 °F /  5.6 °C 30.8 °F /  -0.7 °C 30.03in /  1016.8hPa Calm     64% 0.00in /  0mm 79 W/m2
14:59 42.2 °F /  5.7 °C 30.9 °F /  -0.6 °C 30.03in /  1016.8hPa Calm     64% 0.00in /  0mm 67 W/m2
15:04 42.2 °F /  5.7 °C 30.8 °F /  -0.7 °C 30.03in /  1016.8hPa Calm     63.8% 0.00in /  0mm 67 W/m2
15:09 42.2 °F /  5.7 °C 30.8 °F /  -0.7 °C 30.03in /  1016.8hPa Calm     63.8% 0.00in /  0mm 79 W/m2
15:14 42.2 °F /  5.7 °C 31 °F /  -0.6 °C 30.03in /  1016.8hPa Calm     64.1% 0.00in /  0mm 77 W/m2
15:19 42.3 °F /  5.7 °C 31.2 °F /  -0.4 °C 30.03in /  1016.8hPa Calm     64.6% 0.00in /  0mm 56 W/m2
15:24 42.4 °F /  5.8 °C 32 °F /  0 °C 30.03in /  1016.8hPa Calm     66.4% 0.00in /  0mm 49 W/m2
15:29 42.6 °F /  5.9 °C 32.5 °F /  0.3 °C 30.03in /  1016.8hPa Calm     67.3% 0.00in /  0mm 44 W/m2
15:34 42.7 °F /  5.9 °C 32 °F /  0 °C 30.03in /  1016.8hPa Calm     65.5% 0.00in /  0mm 37 W/m2
15:39 42.7 °F /  5.9 °C 32.5 °F /  0.3 °C 30.03in /  1016.8hPa Calm     66.9% 0.00in /  0mm 32 W/m2
15:44 42.7 °F /  5.9 °C 31.9 °F /  -0.1 °C 30.03in /  1016.8hPa Calm     65.2% 0.00in /  0mm 28 W/m2
15:49 42.5 °F /  5.8 °C 31.4 °F /  -0.3 °C 30.03in /  1016.8hPa Calm     64.5% 0.00in /  0mm 23 W/m2
15:54 42.4 °F /  5.8 °C 31.5 °F /  -0.3 °C 30.03in /  1016.8hPa Calm     65% 0.00in /  0mm 16 W/m2
15:59 42.2 °F /  5.7 °C 31.3 °F /  -0.4 °C 30.04in /  1017.2hPa Calm     65% 0.00in /  0mm 11 W/m2
16:00 42.2 °F /  5.7 °C 31.3 °F /  -0.4 °C 30.04in /  1017.2hPa Calm     65% 0.00in /  0mm 7 W/m2
16:09 41.9 °F /  5.5 °C 31 °F /  -0.6 °C 30.05in /  1017.5hPa Calm     65% 0.00in /  0mm 5 W/m2
16:14 41.7 °F /  5.4 °C 31.2 °F /  -0.4 °C 30.05in /  1017.5hPa Calm     65.8% 0.00in /  0mm 5 W/m2
16:19 41.5 °F /  5.3 °C 31 °F /  -0.6 °C 30.05in /  1017.5hPa Calm     66% 0.00in /  0mm 0 W/m2
16:24 41.2 °F /  5.1 °C 30.9 °F /  -0.6 °C 30.05in /  1017.5hPa Calm     66.3% 0.00in /  0mm 0 W/m2
16:29 41 °F /  5 °C 30.9 °F /  -0.6 °C 30.04in /  1017.2hPa Calm     67% 0.00in /  0mm 0 W/m2
16:34 40.6 °F /  4.8 °C 30.5 °F /  -0.8 °C 30.04in /  1017.2hPa Calm     67% 0.00in /  0mm 0 W/m2
16:39 40.3 °F /  4.6 °C 30.6 °F /  -0.8 °C 30.04in /  1017.2hPa Calm     67.9% 0.00in /  0mm 0 W/m2
16:44 40 °F /  4.4 °C 30.5 °F /  -0.8 °C 30.04in /  1017.2hPa Calm     68.5% 0.00in /  0mm 0 W/m2
16:49 39.8 °F /  4.3 °C 30.6 °F /  -0.8 °C 30.04in /  1017.2hPa Calm     69.3% 0.00in /  0mm 0 W/m2
16:54 39.8 °F /  4.3 °C 31.3 °F /  -0.4 °C 30.04in /  1017.2hPa Calm     71.6% 0.00in /  0mm 0 W/m2
16:59 39.8 °F /  4.3 °C 31.6 °F /  -0.2 °C 30.04in /  1017.2hPa Calm     72.4% 0.00in /  0mm 0 W/m2
17:04 39.9 °F /  4.4 °C 31.9 °F /  -0.1 °C 30.04in /  1017.2hPa Calm     72.8% 0.00in /  0mm 0 W/m2
17:09 39.8 °F /  4.3 °C 31.1 °F /  -0.5 °C 30.04in /  1017.2hPa Calm     70.9% 0.00in /  0mm 0 W/m2
17:14 39.4 °F /  4.1 °C 30.8 °F /  -0.7 °C 30.04in /  1017.2hPa Calm     71.2% 0.00in /  0mm 0 W/m2
17:19 38.9 °F /  3.8 °C 30.7 °F /  -0.7 °C 30.05in /  1017.5hPa Calm     72% 0.00in /  0mm 0 W/m2
17:24 38.5 °F /  3.6 °C 30.3 °F /  -0.9 °C 30.05in /  1017.5hPa Calm   1mph /  1.6km/h 72% 0.00in /  0mm 0 W/m2
17:29 38.1 °F /  3.4 °C 30.3 °F /  -0.9 °C 30.05in /  1017.5hPa Calm   1mph /  1.6km/h 73.1% 0.00in /  0mm 0 W/m2
17:34 37.9 °F /  3.3 °C 30.4 °F /  -0.9 °C 30.05in /  1017.5hPa Calm   1mph /  1.6km/h 74.2% 0.00in /  0mm 0 W/m2
17:39 37.6 °F /  3.1 °C 30.4 °F /  -0.9 °C 30.05in /  1017.5hPa Calm     74.7% 0.00in /  0mm 0 W/m2
17:44 37.5 °F /  3.1 °C 30.5 °F /  -0.8 °C 30.05in /  1017.5hPa Calm     75.5% 0.00in /  0mm 0 W/m2
17:49 37.3 °F /  2.9 °C 30.5 °F /  -0.8 °C 30.05in /  1017.5hPa Calm     76% 0.00in /  0mm 0 W/m2
17:54 37.3 °F /  2.9 °C 30.4 °F /  -0.9 °C 30.05in /  1017.5hPa Calm     76% 0.00in /  0mm 0 W/m2
17:59 37.2 °F /  2.9 °C 30.4 °F /  -0.9 °C 30.05in /  1017.5hPa Calm     76% 0.00in /  0mm 0 W/m2
18:04 37.4 °F /  3 °C 30.5 °F /  -0.8 °C 30.05in /  1017.5hPa Calm     76% 0.00in /  0mm 0 W/m2
18:09 37.6 °F /  3.1 °C 30.7 °F /  -0.7 °C 30.05in /  1017.5hPa Calm     75.9% 0.00in /  0mm 0 W/m2
18:14 37.7 °F /  3.2 °C 30.5 °F /  -0.8 °C 30.05in /  1017.5hPa Calm     75% 0.00in /  0mm 0 W/m2
18:19 37.8 °F /  3.2 °C 30.6 °F /  -0.8 °C 30.04in /  1017.2hPa Calm     75% 0.00in /  0mm 0 W/m2
18:24 37.8 °F /  3.2 °C 30.6 °F /  -0.8 °C 30.04in /  1017.2hPa Calm     75% 0.00in /  0mm 0 W/m2
18:29 37.8 °F /  3.2 °C 30.6 °F /  -0.8 °C 30.04in /  1017.2hPa Calm     75% 0.00in /  0mm 0 W/m2
18:34 37.6 °F /  3.1 °C 30.4 °F /  -0.9 °C 30.04in /  1017.2hPa Calm     75% 0.00in /  0mm 0 W/m2
18:39 37.4 °F /  3 °C 30.2 °F /  -1 °C 30.04in /  1017.2hPa Calm     75% 0.00in /  0mm 0 W/m2
18:44 37.1 °F /  2.8 °C 30.2 °F /  -1 °C 30.05in /  1017.5hPa Calm     75.7% 0.00in /  0mm 0 W/m2
18:49 37 °F /  2.8 °C 30.5 °F /  -0.8 °C 30.05in /  1017.5hPa Calm     77% 0.00in /  0mm 0 W/m2
18:54 37 °F /  2.8 °C 30.6 °F /  -0.8 °C 30.05in /  1017.5hPa Calm     77.4% 0.00in /  0mm 0 W/m2
18:59 37 °F /  2.8 °C 30.8 °F /  -0.7 °C 30.05in /  1017.5hPa Calm     78% 0.00in /  0mm 0 W/m2
19:04 37.1 °F /  2.8 °C 30.9 °F /  -0.6 °C 30.06in /  1017.8hPa Calm     78% 0.00in /  0mm 0 W/m2
19:09 37.1 °F /  2.8 °C 30.8 °F /  -0.7 °C 30.06in /  1017.8hPa Calm     77.8% 0.00in /  0mm 0 W/m2
19:14 37 °F /  2.8 °C 30.8 °F /  -0.7 °C 30.06in /  1017.8hPa Calm     78% 0.00in /  0mm 0 W/m2
19:19 37.1 °F /  2.8 °C 30.9 °F /  -0.6 °C 30.06in /  1017.8hPa Calm     78% 0.00in /  0mm 0 W/m2
19:24 37.2 °F /  2.9 °C 31.1 °F /  -0.5 °C 30.05in /  1017.5hPa Calm     78.6% 0.00in /  0mm 0 W/m2
19:29 37.3 °F /  2.9 °C 31.4 °F /  -0.3 °C 30.05in /  1017.5hPa Calm     79% 0.00in /  0mm 0 W/m2
19:34 37.4 °F /  3 °C 31.5 °F /  -0.3 °C 30.05in /  1017.5hPa Calm     79% 0.00in /  0mm 0 W/m2
19:39 37.6 °F /  3.1 °C 31.8 °F /  -0.1 °C 30.05in /  1017.5hPa Calm     79.4% 0.00in /  0mm 0 W/m2
19:44 37.7 °F /  3.2 °C 31.9 °F /  -0.1 °C 30.06in /  1017.8hPa Calm     79.4% 0.00in /  0mm 0 W/m2
19:49 37.7 °F /  3.2 °C 31.8 °F /  -0.1 °C 30.05in /  1017.5hPa Calm     79% 0.00in /  0mm 0 W/m2
19:54 37.8 °F /  3.2 °C 32 °F /  0 °C 30.05in /  1017.5hPa Calm     79.3% 0.00in /  0mm 0 W/m2
19:59 37.7 °F /  3.2 °C 31.8 °F /  -0.1 °C 30.06in /  1017.8hPa Calm     79% 0.00in /  0mm 0 W/m2
20:00 37.7 °F /  3.2 °C 31.8 °F /  -0.1 °C 30.06in /  1017.8hPa Calm     79% 0.00in /  0mm 0 W/m2
20:09 37.5 °F /  3.1 °C 31.9 °F /  -0.1 °C 30.05in /  1017.5hPa Calm     80% 0.00in /  0mm 0 W/m2
20:14 37.5 °F /  3.1 °C 32 °F /  0 °C 30.05in /  1017.5hPa Calm     80.3% 0.00in /  0mm 0 W/m2
20:19 37.5 °F /  3.1 °C 32.2 °F /  0.1 °C 30.06in /  1017.8hPa Calm     81% 0.00in /  0mm 0 W/m2
20:24 37.5 °F /  3.1 °C 32.2 °F /  0.1 °C 30.06in /  1017.8hPa Calm   2mph /  3.2km/h 81% 0.00in /  0mm 0 W/m2
20:29 37.6 °F /  3.1 °C 32.4 °F /  0.2 °C 30.07in /  1018.2hPa NW 0.5mph /  0.8km/h 2mph /  3.2km/h 81.4% 0.00in /  0mm 0 W/m2
20:34 37.6 °F /  3.1 °C 32.6 °F /  0.3 °C 30.07in /  1018.2hPa Calm   2mph /  3.2km/h 82% 0.00in /  0mm 0 W/m2
20:39 37.8 °F /  3.2 °C 33.2 °F /  0.7 °C 30.07in /  1018.2hPa NW 0.6mph /  1km/h 4mph /  6.4km/h 83.1% 0.00in /  0mm 0 W/m2
20:44 38.2 °F /  3.4 °C 33.8 °F /  1 °C 30.07in /  1018.2hPa WNW 1mph /  1.6km/h 4mph /  6.4km/h 84% 0.00in /  0mm 0 W/m2
20:49 38.6 °F /  3.7 °C 34.2 °F /  1.2 °C 30.06in /  1017.8hPa WNW 0.4mph /  0.6km/h 4mph /  6.4km/h 84% 0.00in /  0mm 0 W/m2
20:54 38.9 °F /  3.8 °C 34.4 °F /  1.3 °C 30.07in /  1018.2hPa WNW 1.1mph /  1.8km/h 4mph /  6.4km/h 83.7% 0.00in /  0mm 0 W/m2
20:59 39.1 °F /  3.9 °C 34.5 °F /  1.4 °C 30.07in /  1018.2hPa WNW 1.1mph /  1.8km/h 5mph /  8km/h 83.3% 0.00in /  0mm 0 W/m2
21:04 39.3 °F /  4.1 °C 34.6 °F /  1.4 °C 30.08in /  1018.5hPa West 0.9mph /  1.4km/h 5mph /  8km/h 83% 0.00in /  0mm 0 W/m2
21:09 39.4 °F /  4.1 °C 34.7 °F /  1.5 °C 30.08in /  1018.5hPa West 1.2mph /  1.9km/h 5mph /  8km/h 83% 0.00in /  0mm 0 W/m2
21:14 39.5 °F /  4.2 °C 34.8 °F /  1.6 °C 30.08in /  1018.5hPa West 0.7mph /  1.1km/h 5mph /  8km/h 83% 0.00in /  0mm 0 W/m2
21:19 39.5 °F /  4.2 °C 34.8 °F /  1.6 °C 30.08in /  1018.5hPa West 1.9mph /  3.1km/h 5mph /  8km/h 83% 0.00in /  0mm 0 W/m2
21:24 39.4 °F /  4.1 °C 34.5 °F /  1.4 °C 30.08in /  1018.5hPa WSW 1.5mph /  2.4km/h 5mph /  8km/h 82.4% 0.00in /  0mm 0 W/m2
21:29 39.4 °F /  4.1 °C 34.3 °F /  1.3 °C 30.08in /  1018.5hPa WSW 1.6mph /  2.6km/h 5mph /  8km/h 82% 0.00in /  0mm 0 W/m2
21:34 39.3 °F /  4.1 °C 34.2 °F /  1.2 °C 30.09in /  1018.8hPa WNW 1.8mph /  2.9km/h 6mph /  9.7km/h 82% 0.00in /  0mm 0 W/m2
21:39 39.1 °F /  3.9 °C 34.1 °F /  1.2 °C 30.10in /  1019.2hPa NW 2.1mph /  3.4km/h 6mph /  9.7km/h 82% 0.00in /  0mm 0 W/m2
21:44 38.9 °F /  3.8 °C 33.9 °F /  1.1 °C 30.10in /  1019.2hPa NNW 2.7mph /  4.3km/h 7mph /  11.3km/h 82.2% 0.00in /  0mm 0 W/m2
21:49 38.7 °F /  3.7 °C 34 °F /  1.1 °C 30.10in /  1019.2hPa NNW 1.4mph /  2.3km/h 7mph /  11.3km/h 83% 0.00in /  0mm 0 W/m2
21:54 38.6 °F /  3.7 °C 33.7 °F /  0.9 °C 30.11in /  1019.5hPa NW 0.3mph /  0.5km/h 7mph /  11.3km/h 82.5% 0.00in /  0mm 0 W/m2
21:59 38.5 °F /  3.6 °C 33.4 °F /  0.8 °C 30.11in /  1019.5hPa Calm   7mph /  11.3km/h 82% 0.00in /  0mm 0 W/m2
22:04 38.3 °F /  3.5 °C 33.3 °F /  0.7 °C 30.11in /  1019.5hPa Calm   7mph /  11.3km/h 82% 0.00in /  0mm 0 W/m2
22:09 38.2 °F /  3.4 °C 33.2 °F /  0.7 °C 30.12in /  1019.9hPa Calm     82% 0.00in /  0mm 0 W/m2
22:14 38 °F /  3.3 °C 33 °F /  0.6 °C 30.12in /  1019.9hPa Calm     82% 0.00in /  0mm 0 W/m2
22:19 37.7 °F /  3.2 °C 32.7 °F /  0.4 °C 30.12in /  1019.9hPa Calm     82% 0.00in /  0mm 0 W/m2
22:24 37.4 °F /  3 °C 32.5 °F /  0.3 °C 30.12in /  1019.9hPa Calm     82.3% 0.00in /  0mm 0 W/m2
22:29 37.2 °F /  2.9 °C 32.6 °F /  0.3 °C 30.12in /  1019.9hPa Calm     83% 0.00in /  0mm 0 W/m2
22:34 37.1 °F /  2.8 °C 32.6 °F /  0.3 °C 30.12in /  1019.9hPa Calm     83.7% 0.00in /  0mm 0 W/m2
22:39 37 °F /  2.8 °C 32.6 °F /  0.3 °C 30.12in /  1019.9hPa Calm     84% 0.00in /  0mm 0 W/m2
22:44 36.9 °F /  2.7 °C 32.6 °F /  0.3 °C 30.12in /  1019.9hPa Calm     84% 0.00in /  0mm 0 W/m2
22:49 36.8 °F /  2.7 °C 32.5 °F /  0.3 °C 30.12in /  1019.9hPa Calm     84% 0.00in /  0mm 0 W/m2
22:54 36.8 °F /  2.7 °C 32.4 °F /  0.2 °C 30.12in /  1019.9hPa Calm     84.1% 0.00in /  0mm 0 W/m2
22:59 36.6 °F /  2.6 °C 32.2 °F /  0.1 °C 30.12in /  1019.9hPa Calm     84% 0.00in /  0mm 0 W/m2
23:00 36.5 °F /  2.5 °C 32.1 °F /  0.1 °C 30.12in /  1019.9hPa Calm     84% 0.00in /  0mm 0 W/m2
23:09 36.3 °F /  2.4 °C 32 °F /  0 °C 30.12in /  1019.9hPa NW 0.2mph /  0.3km/h 2mph /  3.2km/h 84% 0.00in /  0mm 0 W/m2
23:14 36.1 °F /  2.3 °C 31.8 °F /  -0.1 °C 30.12in /  1019.9hPa Calm   2mph /  3.2km/h 84% 0.00in /  0mm 0 W/m2
23:19 35.9 °F /  2.2 °C 31.7 °F /  -0.2 °C 30.12in /  1019.9hPa Calm   2mph /  3.2km/h 84.3% 0.00in /  0mm 0 W/m2
23:24 35.8 °F /  2.1 °C 31.7 °F /  -0.2 °C 30.12in /  1019.9hPa NW 0.1mph /  0.2km/h 2mph /  3.2km/h 85% 0.00in /  0mm 0 W/m2
23:29 35.5 °F /  1.9 °C 31.4 °F /  -0.3 °C 30.13in /  1020.2hPa Calm   2mph /  3.2km/h 85% 0.00in /  0mm 0 W/m2
23:34 35.2 °F /  1.8 °C 31.1 °F /  -0.5 °C 30.14in /  1020.5hPa NW 0.3mph /  0.5km/h 2mph /  3.2km/h 85% 0.00in /  0mm 0 W/m2
23:39 34.8 °F /  1.6 °C 30.8 °F /  -0.7 °C 30.14in /  1020.5hPa Calm   2mph /  3.2km/h 85% 0.00in /  0mm 0 W/m2
23:44 34.5 °F /  1.4 °C 30.6 °F /  -0.8 °C 30.14in /  1020.5hPa Calm   2mph /  3.2km/h 85.4% 0.00in /  0mm 0 W/m2
23:49 34.3 °F /  1.3 °C 30.5 °F /  -0.8 °C 30.14in /  1020.5hPa Calm   2mph /  3.2km/h 86% 0.00in /  0mm 0 W/m2
23:54 34 °F /  1.1 °C 30.4 °F /  -0.9 °C 30.14in /  1020.5hPa Calm   2mph /  3.2km/h 86.2% 0.00in /  0mm 0 W/m2
23:59 33.9 °F /  1.1 °C 30.3 °F /  -0.9 °C 30.15in /  1020.9hPa Calm   2mph /  3.2km/h 86.7% 0.00in /  0mm 0 W/m2
Hartford County Weather
Compliments of Weather Underground - 2 mb